McDermott, Ohio
Current Conditions -  °F | °C
As of 10:35 PM on Monday 20 Oct 2014 (Local Time) from KDWU Reporting Station
Broken Clouds Broken Clouds  
Wind Chill: 54°   Ceiling: 8000
Heat Index: 54°   Visibility: 10mi
Dew Point: 46°   Wind: 6mph
Humidity: 77%   Direction: 290°WNW
Pressure: 29.94"   Gusts: NA
Location:  38.84°N, 83.06°W
Report Text: KDWU 210235Z AUTO 29005KT 10SM FEW039 SCT060 BKN080 12/08 A2994 RMK AO1 P0001
Loading
Personal Weather Stations






























Interactive Weather Map
Tropical Storm Tracking
New forecast layout! Learn more

10-Day Weather Forecast

Advertisements
Track Severe Weather on mobile